Grove, United Kingdom
Current Conditions -  °F | °C
As of 9:50 AM on Saturday 20 Dec 2014 (Local Time) from EGVN Reporting Station
Scattered Clouds Scattered Clouds  
Wind Chill: 44°   Ceiling: Unl
Heat Index: 46°   Visibility: 6mi
Dew Point: 36°   Wind: 6mph
Humidity: 66%   Direction: 240°WSW
Pressure: 30.27"   Gusts: NA
Location:  51.61°N, 1.42°W
Report Text: EGVN 200950Z 24005KT 9999 FEW035 SCT040 08/02 Q1025 NOSIG
Loading
Personal Weather Stations






























Interactive Weather Map New forecast layout! Learn more

10-Day Weather Forecast

Advertisements
Track Severe Weather on mobile